Time;durP1;ratioP1;P1;durP2;ratioP2;P2;SDS_P1;SDS_P2;PMS_P1;PMS_P2;Temp;Humidity;BMP_temperature;BMP_pressure;BME280_temperature;BME280_humidity;BME280_pressure;Samples;Min_cycle;Max_cycle;Signal;HPM_P1;HPM_P2
2022/08/08 00:02:05;;;;;;;2.05;1.15;;;;;;;;;;5074782;28;20057;-41
2022/08/08 00:04:53;;;;;;;2.65;1.10;;;;;;;;;;5074804;28;20025;-42
2022/08/08 00:07:19;;;;;;;1.30;1.20;;;;;;;;;;5074793;28;20103;-42
2022/08/08 00:09:59;;;;;;;1.63;1.52;;;;;;;;;;5074395;28;20071;-42
2022/08/08 00:12:38;;;;;;;0.88;0.80;;;;;;;;;;5074401;28;20051;-46
2022/08/08 00:15:18;;;;;;;1.20;0.70;;;;;;;;;;5074524;28;20028;-43
2022/08/08 00:17:52;;;;;;;1.02;0.95;;;;;;;;;;5072583;28;20098;-59
2022/08/08 00:20:28;;;;;;;0.85;0.80;;;;;;;;;;5073742;28;20032;-49
2022/08/08 00:23:09;;;;;;;2.20;1.00;;;;;;;;;;5074072;28;20500;-41
2022/08/08 00:25:41;;;;;;;1.35;1.10;;;;;;;;;;5073547;28;20025;-54
2022/08/08 00:28:12;;;;;;;4.63;1.90;;;;;;;;;;5074245;28;20024;-42
2022/08/08 00:30:44;;;;;;;2.42;1.20;;;;;;;;;;5074218;28;20025;-59
2022/08/08 00:33:20;;;;;;;2.42;0.93;;;;;;;;;;5073898;28;20036;-47
2022/08/08 00:36:05;;;;;;;2.05;1.00;;;;;;;;;;5073797;28;20032;-42
2022/08/08 00:38:54;;;;;;;1.05;1.00;;;;;;;;;;5073740;28;20024;-47
2022/08/08 00:41:32;;;;;;;3.85;1.33;;;;;;;;;;5073770;28;20021;-52
2022/08/08 00:44:19;;;;;;;2.65;1.25;;;;;;;;;;5073813;28;20029;-51
2022/08/08 00:46:55;;;;;;;1.33;1.20;;;;;;;;;;5073870;28;20029;-52
2022/08/08 00:49:51;;;;;;;1.25;1.02;;;;;;;;;;5073514;28;20495;-42
2022/08/08 00:52:41;;;;;;;3.40;1.13;;;;;;;;;;5073588;28;20074;-50
2022/08/08 00:55:32;;;;;;;1.00;0.90;;;;;;;;;;5073508;28;20074;-42
2022/08/08 00:58:18;;;;;;;1.20;1.10;;;;;;;;;;5073689;28;20036;-44
2022/08/08 01:01:12;;;;;;;1.98;0.98;;;;;;;;;;5073653;28;20087;-42
2022/08/08 01:04:06;;;;;;;1.98;0.95;;;;;;;;;;5073536;28;20033;-42
2022/08/08 01:07:09;;;;;;;1.13;1.00;;;;;;;;;;5073460;28;20036;-42
2022/08/08 01:10:02;;;;;;;1.23;1.13;;;;;;;;;;5072978;28;20024;-47
2022/08/08 01:12:43;;;;;;;1.30;0.88;;;;;;;;;;5073311;28;20024;-42
2022/08/08 01:15:11;;;;;;;2.95;1.10;;;;;;;;;;5073038;28;20039;-42
2022/08/08 01:17:51;;;;;;;1.40;0.88;;;;;;;;;;5073043;28;20017;-42
2022/08/08 01:20:31;;;;;;;2.45;0.93;;;;;;;;;;5073099;28;20067;-42
2022/08/08 01:23:42;;;;;;;1.23;0.90;;;;;;;;;;5072952;28;20032;-42
2022/08/08 01:26:21;;;;;;;1.17;1.08;;;;;;;;;;5073023;28;20565;-42
2022/08/08 01:29:24;;;;;;;2.17;1.15;;;;;;;;;;5073282;28;20036;-42
2022/08/08 01:32:17;;;;;;;3.08;1.00;;;;;;;;;;5072125;28;20024;-41
2022/08/08 01:35:05;;;;;;;1.75;0.98;;;;;;;;;;5072629;28;20032;-43
2022/08/08 01:37:49;;;;;;;2.30;1.13;;;;;;;;;;5073013;28;20059;-43
2022/08/08 01:40:33;;;;;;;10.25;1.05;;;;;;;;;;5072717;28;20107;-41
2022/08/08 01:43:16;;;;;;;1.17;0.90;;;;;;;;;;5072674;28;20064;-42
2022/08/08 01:46:02;;;;;;;1.98;1.20;;;;;;;;;;5072556;28;20519;-41
2022/08/08 01:49:00;;;;;;;1.05;0.90;;;;;;;;;;5021724;28;20504;-43
2022/08/08 01:51:47;;;;;;;5.80;1.00;;;;;;;;;;5072812;28;20480;-42
2022/08/08 01:54:26;;;;;;;1.15;1.05;;;;;;;;;;5072215;28;20056;-46
2022/08/08 01:57:19;;;;;;;1.40;1.08;;;;;;;;;;5072474;28;20636;-42
2022/08/08 02:00:00;;;;;;;1.90;0.93;;;;;;;;;;5072627;28;20060;-42
2022/08/08 02:02:35;;;;;;;7.63;1.00;;;;;;;;;;5072476;28;20067;-46
2022/08/08 02:05:15;;;;;;;1.67;1.00;;;;;;;;;;5072701;28;20438;-46
2022/08/08 02:08:13;;;;;;;2.35;0.93;;;;;;;;;;5072697;28;20035;-42
2022/08/08 02:10:53;;;;;;;1.33;0.93;;;;;;;;;;5072595;28;20056;-42
2022/08/08 02:13:24;;;;;;;2.22;0.93;;;;;;;;;;5072474;28;20029;-41
2022/08/08 02:16:06;;;;;;;2.88;1.10;;;;;;;;;;5072285;28;20025;-42
2022/08/08 02:18:56;;;;;;;5.55;1.20;;;;;;;;;;5072256;28;20040;-41
2022/08/08 02:24:26;;;;;;;1.85;1.00;;;;;;;;;;5072530;28;20031;-43
2022/08/08 02:26:57;;;;;;;1.63;1.13;;;;;;;;;;5072412;28;20035;-51
2022/08/08 02:29:25;;;;;;;4.55;1.10;;;;;;;;;;5072203;28;20029;-52
2022/08/08 02:32:09;;;;;;;9.10;1.13;;;;;;;;;;5072376;28;20364;-48
2022/08/08 02:34:47;;;;;;;1.10;1.08;;;;;;;;;;5072066;28;20095;-42
2022/08/08 02:37:51;;;;;;;1.90;1.38;;;;;;;;;;5072099;28;20036;-46
2022/08/08 02:41:21;;;;;;;3.08;0.95;;;;;;;;;;5067344;28;20488;-46
2022/08/08 02:44:05;;;;;;;2.80;1.10;;;;;;;;;;4962414;28;20058;-59
2022/08/08 02:46:58;;;;;;;1.27;0.93;;;;;;;;;;5076080;28;20035;-47
2022/08/08 02:49:55;;;;;;;2.03;1.05;;;;;;;;;;5075929;28;20112;-45
2022/08/08 02:53:05;;;;;;;1.73;1.10;;;;;;;;;;5076189;28;20028;-42
2022/08/08 02:55:55;;;;;;;2.80;1.10;;;;;;;;;;5076009;28;20086;-42
2022/08/08 02:58:58;;;;;;;4.07;1.20;;;;;;;;;;5044625;28;20040;-42
2022/08/08 03:01:50;;;;;;;2.40;0.93;;;;;;;;;;5075688;28;20021;-47
2022/08/08 03:04:31;;;;;;;1.35;1.02;;;;;;;;;;5075696;28;20100;-42
2022/08/08 03:07:15;;;;;;;3.15;1.00;;;;;;;;;;5075906;28;20082;-47
2022/08/08 03:10:17;;;;;;;2.88;1.10;;;;;;;;;;5075461;28;20071;-41
2022/08/08 03:13:23;;;;;;;24.08;1.90;;;;;;;;;;5075429;28;20029;-42
2022/08/08 03:16:00;;;;;;;2.20;0.80;;;;;;;;;;5075655;28;20029;-41
2022/08/08 03:18:34;;;;;;;5.50;1.83;;;;;;;;;;5075286;28;20024;-58
2022/08/08 03:21:00;;;;;;;12.43;1.40;;;;;;;;;;5075539;28;20035;-42
2022/08/08 03:23:26;;;;;;;17.40;1.73;;;;;;;;;;5075328;28;20016;-43
2022/08/08 03:25:53;;;;;;;18.77;1.30;;;;;;;;;;5075294;28;20519;-50
2022/08/08 03:28:42;;;;;;;7.10;1.20;;;;;;;;;;5075167;28;20056;-43
2022/08/08 03:33:56;;;;;;;10.32;1.50;;;;;;;;;;5046109;28;20041;-42
2022/08/08 03:36:23;;;;;;;12.90;1.35;;;;;;;;;;5075280;28;20108;-41
2022/08/08 03:38:51;;;;;;;9.32;1.10;;;;;;;;;;5074987;28;20029;-42
2022/08/08 03:41:16;;;;;;;7.18;1.25;;;;;;;;;;5075004;28;20103;-42
2022/08/08 03:43:53;;;;;;;15.60;1.80;;;;;;;;;;5075113;28;20099;-58
2022/08/08 03:46:19;;;;;;;7.35;1.05;;;;;;;;;;5074889;28;20046;-49
2022/08/08 03:49:03;;;;;;;4.28;1.30;;;;;;;;;;5075008;28;20037;-59
2022/08/08 03:51:29;;;;;;;13.75;1.38;;;;;;;;;;5075065;28;20028;-46
2022/08/08 03:53:54;;;;;;;6.50;1.52;;;;;;;;;;5073493;28;20439;-48
2022/08/08 03:56:21;;;;;;;1.48;0.85;;;;;;;;;;5074965;28;20480;-43
2022/08/08 03:58:48;;;;;;;11.30;1.02;;;;;;;;;;5074983;28;20118;-42
2022/08/08 04:01:15;;;;;;;3.88;0.90;;;;;;;;;;5074726;28;20029;-41
2022/08/08 04:03:44;;;;;;;3.33;0.93;;;;;;;;;;5074874;28;20039;-42
2022/08/08 04:06:09;;;;;;;7.03;1.70;;;;;;;;;;5074834;28;20408;-41
2022/08/08 04:08:36;;;;;;;7.03;0.90;;;;;;;;;;5074457;28;20036;-42
2022/08/08 04:11:03;;;;;;;3.90;1.00;;;;;;;;;;5074499;28;20025;-42
2022/08/08 04:13:29;;;;;;;1.48;0.70;;;;;;;;;;5074301;28;20110;-42
2022/08/08 04:15:54;;;;;;;2.80;1.20;;;;;;;;;;5074650;28;20039;-45
2022/08/08 04:18:20;;;;;;;7.65;0.90;;;;;;;;;;5074281;28;20028;-41
2022/08/08 04:20:45;;;;;;;0.98;0.77;;;;;;;;;;5074192;28;20110;-41
2022/08/08 04:23:11;;;;;;;1.80;0.98;;;;;;;;;;5074511;28;20103;-48
2022/08/08 04:25:36;;;;;;;6.20;1.80;;;;;;;;;;5074077;28;20027;-42
2022/08/08 04:28:02;;;;;;;4.47;1.38;;;;;;;;;;5074076;28;20056;-43
2022/08/08 04:30:27;;;;;;;1.13;0.95;;;;;;;;;;5074145;28;20070;-47
2022/08/08 04:32:53;;;;;;;2.97;0.85;;;;;;;;;;5073971;28;20020;-50
2022/08/08 04:35:19;;;;;;;1.20;0.75;;;;;;;;;;5074060;28;20030;-49
2022/08/08 04:37:44;;;;;;;2.10;1.17;;;;;;;;;;5073943;28;20348;-57
2022/08/08 04:40:10;;;;;;;8.23;1.00;;;;;;;;;;5073805;28;20025;-55
2022/08/08 04:42:36;;;;;;;7.30;1.55;;;;;;;;;;5073827;28;20438;-44
2022/08/08 04:45:03;;;;;;;2.55;0.95;;;;;;;;;;5073885;28;20057;-43
2022/08/08 04:47:29;;;;;;;4.22;0.90;;;;;;;;;;5074012;28;20376;-51
2022/08/08 04:49:55;;;;;;;4.28;1.00;;;;;;;;;;5073928;28;20032;-53
2022/08/08 04:52:20;;;;;;;4.22;1.17;;;;;;;;;;5073876;28;20029;-42
2022/08/08 04:54:46;;;;;;;1.73;0.98;;;;;;;;;;5073280;28;20082;-57
2022/08/08 04:57:11;;;;;;;3.53;0.95;;;;;;;;;;5073489;28;20032;-42
2022/08/08 04:59:38;;;;;;;3.80;1.00;;;;;;;;;;5073409;28;20113;-42
2022/08/08 05:02:04;;;;;;;2.83;0.93;;;;;;;;;;5073582;28;20025;-54
2022/08/08 05:04:29;;;;;;;3.13;1.13;;;;;;;;;;5073524;28;20053;-46
2022/08/08 05:06:55;;;;;;;7.18;2.25;;;;;;;;;;5073402;28;20118;-41
2022/08/08 05:09:20;;;;;;;5.65;0.93;;;;;;;;;;5073179;28;20071;-58
2022/08/08 05:11:46;;;;;;;2.17;0.90;;;;;;;;;;5073142;28;20082;-49
2022/08/08 05:14:11;;;;;;;3.38;1.00;;;;;;;;;;5073250;28;20025;-43
2022/08/08 05:16:37;;;;;;;2.85;0.75;;;;;;;;;;5073132;28;20096;-51
2022/08/08 05:19:02;;;;;;;3.00;0.80;;;;;;;;;;5073002;28;20112;-42
2022/08/08 05:21:28;;;;;;;3.22;0.80;;;;;;;;;;5072964;28;20476;-45
2022/08/08 05:23:53;;;;;;;1.75;0.70;;;;;;;;;;5072962;28;20032;-53
2022/08/08 05:26:21;;;;;;;3.00;0.60;;;;;;;;;;5072945;28;20031;-45
2022/08/08 05:28:46;;;;;;;0.95;0.75;;;;;;;;;;5072851;28;20056;-49
2022/08/08 05:31:12;;;;;;;0.68;0.68;;;;;;;;;;5073066;28;20067;-41
2022/08/08 05:33:38;;;;;;;0.95;0.90;;;;;;;;;;5054804;28;20107;-47
2022/08/08 05:36:04;;;;;;;2.40;1.00;;;;;;;;;;5073028;28;20020;-43
2022/08/08 05:38:35;;;;;;;0.82;0.75;;;;;;;;;;5072708;28;20523;-55
2022/08/08 05:41:02;;;;;;;3.28;1.10;;;;;;;;;;5072741;28;20476;-59
2022/08/08 05:43:33;;;;;;;1.42;0.85;;;;;;;;;;5072973;28;20127;-44
2022/08/08 05:46:03;;;;;;;2.22;0.90;;;;;;;;;;5072926;28;20024;-51
2022/08/08 05:48:30;;;;;;;2.85;0.85;;;;;;;;;;5072660;28;20036;-48
2022/08/08 05:50:56;;;;;;;6.20;1.00;;;;;;;;;;5054497;28;20059;-50
2022/08/08 05:53:26;;;;;;;4.43;1.00;;;;;;;;;;5072266;28;20048;-51
2022/08/08 05:55:53;;;;;;;1.75;0.93;;;;;;;;;;5072718;28;20032;-41
2022/08/08 05:58:23;;;;;;;1.17;0.80;;;;;;;;;;5072428;28;20485;-41
2022/08/08 06:00:50;;;;;;;4.00;1.08;;;;;;;;;;5073131;28;20059;-54
2022/08/08 06:03:16;;;;;;;2.17;0.95;;;;;;;;;;5072712;28;20025;-45
2022/08/08 06:06:05;;;;;;;4.03;1.35;;;;;;;;;;5072383;28;20473;-46
2022/08/08 06:08:42;;;;;;;4.53;0.90;;;;;;;;;;5072395;28;20040;-46
2022/08/08 06:11:08;;;;;;;1.50;0.90;;;;;;;;;;5072714;28;20348;-51
2022/08/08 06:13:34;;;;;;;3.75;1.58;;;;;;;;;;5072431;28;20111;-56
2022/08/08 06:15:59;;;;;;;4.00;0.95;;;;;;;;;;5072146;28;20116;-59
2022/08/08 06:18:26;;;;;;;8.13;1.40;;;;;;;;;;5053957;28;20044;-59
2022/08/08 06:20:59;;;;;;;2.10;1.30;;;;;;;;;;5072065;28;20024;-49
2022/08/08 06:23:26;;;;;;;0.70;0.70;;;;;;;;;;5072385;28;20078;-58
2022/08/08 06:26:05;;;;;;;4.50;1.02;;;;;;;;;;5072186;28;20016;-58
2022/08/08 06:28:50;;;;;;;6.40;1.20;;;;;;;;;;5072375;28;20036;-52
2022/08/08 06:31:21;;;;;;;0.70;0.50;;;;;;;;;;5072232;28;20034;-44
2022/08/08 06:34:18;;;;;;;1.25;0.90;;;;;;;;;;5072157;28;20029;-54
2022/08/08 06:36:44;;;;;;;3.83;1.23;;;;;;;;;;5063838;28;20552;-54
2022/08/08 06:39:15;;;;;;;0.93;0.90;;;;;;;;;;5071939;28;20056;-58
2022/08/08 06:41:56;;;;;;;3.13;1.13;;;;;;;;;;5072341;28;20395;-56
2022/08/08 06:44:24;;;;;;;0.63;0.50;;;;;;;;;;5072317;28;20452;-49
2022/08/08 06:46:51;;;;;;;1.90;0.60;;;;;;;;;;5072000;28;20027;-57
2022/08/08 06:49:17;;;;;;;2.33;0.85;;;;;;;;;;5072251;28;20075;-46
2022/08/08 06:51:42;;;;;;;1.70;0.90;;;;;;;;;;5072063;28;20016;-56
2022/08/08 06:54:08;;;;;;;4.50;1.30;;;;;;;;;;5071824;28;20094;-45
2022/08/08 06:56:35;;;;;;;3.65;1.05;;;;;;;;;;5071843;28;20404;-58
2022/08/08 06:59:00;;;;;;;3.45;0.82;;;;;;;;;;5072151;28;20556;-48
2022/08/08 07:01:29;;;;;;;4.97;1.15;;;;;;;;;;5071837;28;20111;-46
2022/08/08 07:04:47;;;;;;;5.18;1.10;;;;;;;;;;5071732;28;20024;-49
2022/08/08 07:07:22;;;;;;;1.85;1.00;;;;;;;;;;5068553;28;20033;-49
2022/08/08 07:10:20;;;;;;;3.92;0.90;;;;;;;;;;5071830;28;20036;-55
2022/08/08 07:13:01;;;;;;;5.38;1.05;;;;;;;;;;5052969;28;20055;-54
2022/08/08 07:16:02;;;;;;;4.40;1.00;;;;;;;;;;5071988;28;20043;-51
2022/08/08 07:18:46;;;;;;;4.03;1.15;;;;;;;;;;5064904;28;20039;-51
2022/08/08 07:21:17;;;;;;;2.42;0.90;;;;;;;;;;5071892;28;20100;-51
2022/08/08 07:24:05;;;;;;;3.13;1.30;;;;;;;;;;5054127;28;20480;-50
2022/08/08 07:26:36;;;;;;;2.53;0.77;;;;;;;;;;5071657;28;20497;-52
2022/08/08 07:29:03;;;;;;;11.13;1.13;;;;;;;;;;5072861;28;20408;-51
2022/08/08 07:31:30;;;;;;;1.30;0.90;;;;;;;;;;5075343;28;20025;-48
2022/08/08 07:33:55;;;;;;;2.55;0.50;;;;;;;;;;5074982;28;20028;-44
2022/08/08 07:36:22;;;;;;;2.38;0.90;;;;;;;;;;5075310;28;20123;-49
2022/08/08 07:38:50;;;;;;;0.80;0.80;;;;;;;;;;5074951;28;20496;-50
2022/08/08 07:41:19;;;;;;;1.52;0.90;;;;;;;;;;5074953;28;20116;-51
2022/08/08 07:43:48;;;;;;;1.60;0.93;;;;;;;;;;5075149;28;20476;-50
2022/08/08 07:46:14;;;;;;;2.92;0.90;;;;;;;;;;5074814;28;20544;-52
2022/08/08 07:48:39;;;;;;;2.45;0.90;;;;;;;;;;5074875;28;20067;-49
2022/08/08 07:51:08;;;;;;;1.45;0.80;;;;;;;;;;5074761;28;20103;-53
2022/08/08 07:53:44;;;;;;;5.57;1.50;;;;;;;;;;5074418;28;20086;-52
2022/08/08 07:56:14;;;;;;;6.70;1.05;;;;;;;;;;5074759;28;20024;-57
2022/08/08 07:58:43;;;;;;;;;;;;;;;;;;5075020;28;20074;-52
2022/08/08 08:01:12;;;;;;;0.90;0.80;;;;;;;;;;5056603;28;20441;-55
2022/08/08 08:03:47;;;;;;;0.73;0.60;;;;;;;;;;5074742;28;20396;-54
2022/08/08 08:06:14;;;;;;;2.55;1.00;;;;;;;;;;5074732;28;20125;-56
2022/08/08 08:08:46;;;;;;;4.30;1.15;;;;;;;;;;5074339;28;20029;-54
2022/08/08 08:11:14;;;;;;;2.55;1.10;;;;;;;;;;5074611;28;20032;-47
2022/08/08 08:13:45;;;;;;;4.63;1.17;;;;;;;;;;5074454;28;20123;-52
2022/08/08 08:16:17;;;;;;;3.97;1.15;;;;;;;;;;5056766;28;20060;-48
2022/08/08 08:18:54;;;;;;;5.68;1.30;;;;;;;;;;5074472;28;20024;-44
2022/08/08 08:21:21;;;;;;;3.83;1.20;;;;;;;;;;5074251;28;20029;-54
2022/08/08 08:23:46;;;;;;;3.72;1.30;;;;;;;;;;5074414;28;20048;-48
2022/08/08 08:26:12;;;;;;;3.28;1.10;;;;;;;;;;5072753;28;20129;-46
2022/08/08 08:28:39;;;;;;;12.85;2.28;;;;;;;;;;5054233;28;20028;-43
2022/08/08 08:31:05;;;;;;;3.92;1.10;;;;;;;;;;5072093;28;20028;-44
2022/08/08 08:33:31;;;;;;;4.40;1.00;;;;;;;;;;5072264;28;20036;-47
2022/08/08 08:35:58;;;;;;;7.85;1.20;;;;;;;;;;5073753;28;20047;-47
2022/08/08 08:38:23;;;;;;;6.03;1.23;;;;;;;;;;5074012;28;20024;-46
2022/08/08 08:40:49;;;;;;;5.35;1.40;;;;;;;;;;5073643;28;20417;-54
2022/08/08 08:43:19;;;;;;;4.85;1.30;;;;;;;;;;5072125;28;20020;-48
2022/08/08 08:45:47;;;;;;;3.55;1.02;;;;;;;;;;5072487;28;20082;-45
2022/08/08 08:48:13;;;;;;;7.22;1.08;;;;;;;;;;5073957;28;20051;-47
2022/08/08 08:50:43;;;;;;;10.95;1.23;;;;;;;;;;5073537;28;20107;-51
2022/08/08 08:53:09;;;;;;;4.68;1.30;;;;;;;;;;5072445;28;20044;-50
2022/08/08 08:55:37;;;;;;;10.10;1.60;;;;;;;;;;5073802;28;20024;-46
2022/08/08 08:58:06;;;;;;;3.45;0.98;;;;;;;;;;5072621;28;20093;-47
2022/08/08 09:00:36;;;;;;;4.80;1.05;;;;;;;;;;5068860;28;20515;-50
2022/08/08 09:03:07;;;;;;;3.47;1.30;;;;;;;;;;5073267;28;20043;-51
2022/08/08 09:05:39;;;;;;;3.55;1.10;;;;;;;;;;5073553;28;20035;-45
2022/08/08 09:08:07;;;;;;;5.20;1.63;;;;;;;;;;5073202;28;20499;-48
2022/08/08 09:10:39;;;;;;;2.13;1.05;;;;;;;;;;5073050;28;20029;-52
2022/08/08 09:13:08;;;;;;;4.03;1.30;;;;;;;;;;5071769;28;20472;-54
2022/08/08 09:15:34;;;;;;;;;;;;;;;;;;5071843;28;20032;-47
2022/08/08 09:18:03;;;;;;;2.83;1.13;;;;;;;;;;5071656;28;19916;-49
2022/08/08 09:20:28;;;;;;;15.87;1.97;;;;;;;;;;5071254;28;20028;-49
2022/08/08 09:22:55;;;;;;;6.50;1.73;;;;;;;;;;5071724;28;20469;-50
2022/08/08 09:25:21;;;;;;;4.03;1.05;;;;;;;;;;5071760;28;20032;-53
2022/08/08 09:27:46;;;;;;;3.25;1.80;;;;;;;;;;5071331;28;20024;-50
2022/08/08 09:30:14;;;;;;;4.35;1.45;;;;;;;;;;5071238;28;20472;-51
2022/08/08 09:32:43;;;;;;;1.58;0.93;;;;;;;;;;5071167;28;20017;-47
2022/08/08 09:35:13;;;;;;;4.80;0.90;;;;;;;;;;5071076;28;20592;-51
2022/08/08 09:37:45;;;;;;;5.72;1.10;;;;;;;;;;5071335;28;20024;-52
2022/08/08 09:40:23;;;;;;;4.00;1.00;;;;;;;;;;5071392;28;20032;-45
2022/08/08 09:43:02;;;;;;;3.45;1.25;;;;;;;;;;5070983;28;20028;-49
2022/08/08 09:45:33;;;;;;;14.50;1.30;;;;;;;;;;5070959;28;20614;-54
2022/08/08 09:48:02;;;;;;;1.33;0.90;;;;;;;;;;5071192;28;20034;-47
2022/08/08 09:50:29;;;;;;;2.53;1.23;;;;;;;;;;5071077;28;20086;-49
2022/08/08 09:52:56;;;;;;;2.03;1.15;;;;;;;;;;5070171;28;20047;-50
2022/08/08 09:55:24;;;;;;;2.53;1.35;;;;;;;;;;5070255;28;20090;-43
2022/08/08 09:58:05;;;;;;;6.75;1.00;;;;;;;;;;5070900;28;20135;-51
2022/08/08 10:00:34;;;;;;;3.20;1.20;;;;;;;;;;5070804;28;20032;-52
2022/08/08 10:03:01;;;;;;;;;;;;;;;;;;5071216;28;20082;-53
2022/08/08 10:05:32;;;;;;;4.05;1.20;;;;;;;;;;5070325;28;20303;-44
2022/08/08 10:07:57;;;;;;;3.90;1.00;;;;;;;;;;5070399;28;20051;-50
2022/08/08 10:10:41;;;;;;;2.72;1.42;;;;;;;;;;5069027;28;20558;-49
2022/08/08 10:13:30;;;;;;;3.78;1.08;;;;;;;;;;5070203;28;20024;-50
2022/08/08 10:15:57;;;;;;;2.47;1.13;;;;;;;;;;5070478;28;20380;-42
2022/08/08 10:18:33;;;;;;;4.80;1.10;;;;;;;;;;5070360;28;20476;-46
2022/08/08 10:21:06;;;;;;;4.80;1.30;;;;;;;;;;5070887;28;20035;-52
2022/08/08 10:23:41;;;;;;;4.72;1.58;;;;;;;;;;5071143;28;20040;-53
2022/08/08 10:26:14;;;;;;;3.30;1.30;;;;;;;;;;5070603;28;20507;-52
2022/08/08 10:28:51;;;;;;;4.68;1.20;;;;;;;;;;5070253;28;20040;-45
2022/08/08 10:34:04;;;;;;;2.20;1.27;;;;;;;;;;5070653;28;20511;-54
2022/08/08 10:36:30;;;;;;;2.00;1.17;;;;;;;;;;5052712;28;20400;-53
2022/08/08 10:39:01;;;;;;;3.78;1.50;;;;;;;;;;5070281;28;20032;-54
2022/08/08 10:41:30;;;;;;;4.03;1.30;;;;;;;;;;5069941;28;20365;-48
2022/08/08 10:43:57;;;;;;;3.10;1.10;;;;;;;;;;5070381;28;20078;-52
2022/08/08 10:46:26;;;;;;;5.63;1.42;;;;;;;;;;5070376;28;20029;-47
2022/08/08 10:48:53;;;;;;;;;;;;;;;;;;5070445;28;20020;-51
2022/08/08 10:51:19;;;;;;;4.45;1.50;;;;;;;;;;5070279;28;19931;-53
2022/08/08 10:53:51;;;;;;;1.98;1.00;;;;;;;;;;5069954;28;20053;-50
2022/08/08 10:56:17;;;;;;;10.38;1.92;;;;;;;;;;5070500;28;20043;-49
2022/08/08 10:58:43;;;;;;;5.22;1.30;;;;;;;;;;5070356;28;20025;-49
2022/08/08 11:01:10;;;;;;;4.43;1.40;;;;;;;;;;5070057;28;20032;-43
2022/08/08 11:03:43;;;;;;;1.52;1.10;;;;;;;;;;5071682;28;20035;-53
2022/08/08 11:06:09;;;;;;;4.50;1.20;;;;;;;;;;5074264;28;20027;-46
2022/08/08 11:08:36;;;;;;;3.58;1.13;;;;;;;;;;5074082;28;20033;-47
2022/08/08 11:11:06;;;;;;;19.67;2.22;;;;;;;;;;5074006;28;20480;-54
2022/08/08 11:13:38;;;;;;;2.72;1.40;;;;;;;;;;5073796;28;20036;-49
2022/08/08 11:16:04;;;;;;;4.57;1.40;;;;;;;;;;5074089;28;20103;-54
2022/08/08 11:18:35;;;;;;;1.80;1.30;;;;;;;;;;5074090;28;20040;-46
2022/08/08 11:21:04;;;;;;;2.92;1.10;;;;;;;;;;5073789;28;20090;-52
2022/08/08 11:23:35;;;;;;;2.30;1.25;;;;;;;;;;5073598;28;20064;-50
2022/08/08 11:26:04;;;;;;;1.95;1.25;;;;;;;;;;5074070;28;20480;-52
2022/08/08 11:28:33;;;;;;;4.47;1.45;;;;;;;;;;5073574;28;20036;-48
2022/08/08 11:31:00;;;;;;;4.85;1.48;;;;;;;;;;5073756;28;20028;-49
2022/08/08 11:33:28;;;;;;;6.93;1.40;;;;;;;;;;5073723;28;20384;-51
2022/08/08 11:35:55;;;;;;;2.47;1.30;;;;;;;;;;5073779;28;20033;-50
2022/08/08 11:38:21;;;;;;;3.30;1.38;;;;;;;;;;5073732;28;20103;-51
2022/08/08 11:40:48;;;;;;;4.15;1.55;;;;;;;;;;5073202;28;20103;-54
2022/08/08 11:43:17;;;;;;;2.97;1.45;;;;;;;;;;5073149;28;20089;-52
2022/08/08 11:45:44;;;;;;;5.55;1.30;;;;;;;;;;5073438;28;20041;-48
2022/08/08 11:48:11;;;;;;;4.60;1.60;;;;;;;;;;5072918;28;20043;-44
2022/08/08 11:53:13;;;;;;;4.15;1.48;;;;;;;;;;5178607;22;20053;-44
2022/08/08 11:55:49;;;;;;;3.65;1.30;;;;;;;;;;5013802;28;20088;-46
2022/08/08 11:58:15;;;;;;;1.75;1.30;;;;;;;;;;5013031;28;20030;-49
2022/08/08 12:00:49;;;;;;;2.33;1.25;;;;;;;;;;5013695;28;20121;-51
2022/08/08 12:03:26;;;;;;;7.22;1.85;;;;;;;;;;5013452;28;20053;-53
2022/08/08 12:05:53;;;;;;;1.88;1.52;;;;;;;;;;5013259;28;20061;-48
2022/08/08 12:08:33;;;;;;;8.95;1.90;;;;;;;;;;5013548;28;20439;-48
2022/08/08 12:11:01;;;;;;;8.00;1.50;;;;;;;;;;5012926;28;20052;-48
2022/08/08 12:13:27;;;;;;;2.25;1.42;;;;;;;;;;4995521;28;20040;-45
2022/08/08 12:15:54;;;;;;;5.03;1.60;;;;;;;;;;5012231;28;20042;-46
2022/08/08 12:18:23;;;;;;;7.70;1.50;;;;;;;;;;4995002;28;20018;-54
2022/08/08 12:20:53;;;;;;;15.05;2.25;;;;;;;;;;5013354;28;20142;-52
2022/08/08 12:23:34;;;;;;;6.38;1.60;;;;;;;;;;5013283;28;20026;-49
2022/08/08 12:26:10;;;;;;;9.88;1.90;;;;;;;;;;5013026;28;20044;-55
2022/08/08 12:28:35;;;;;;;3.65;1.42;;;;;;;;;;5013213;28;20620;-53
2022/08/08 12:31:08;;;;;;;6.80;1.50;;;;;;;;;;5012743;28;20041;-54
2022/08/08 12:33:38;;;;;;;6.15;1.63;;;;;;;;;;5012665;28;20072;-53
2022/08/08 12:36:11;;;;;;;8.57;1.73;;;;;;;;;;5013103;28;20025;-52
2022/08/08 12:38:48;;;;;;;5.63;1.80;;;;;;;;;;5012952;28;20022;-47
2022/08/08 12:41:14;;;;;;;5.65;1.80;;;;;;;;;;5012844;28;20041;-47
2022/08/08 12:43:40;;;;;;;10.70;1.73;;;;;;;;;;5012122;28;20542;-52
2022/08/08 12:46:16;;;;;;;6.80;1.70;;;;;;;;;;5012837;28;20033;-48
2022/08/08 12:48:52;;;;;;;4.78;1.80;;;;;;;;;;5012522;28;20026;-46
2022/08/08 12:51:19;;;;;;;3.65;1.88;;;;;;;;;;5027425;28;20034;-45
2022/08/08 12:53:59;;;;;;;6.07;1.90;;;;;;;;;;5012134;28;20033;-46
2022/08/08 12:56:38;;;;;;;10.05;1.83;;;;;;;;;;5012320;28;20030;-50
2022/08/08 12:59:18;;;;;;;5.20;1.90;;;;;;;;;;5012648;28;20372;-44
2022/08/08 13:01:57;;;;;;;7.05;1.85;;;;;;;;;;5012740;28;20030;-47
2022/08/08 13:04:28;;;;;;;4.32;1.80;;;;;;;;;;5012289;28;20026;-44
2022/08/08 13:07:06;;;;;;;6.85;1.88;;;;;;;;;;5012476;28;20038;-50
2022/08/08 13:09:40;;;;;;;2.20;1.90;;;;;;;;;;5012335;28;20084;-49
2022/08/08 13:12:17;;;;;;;3.97;2.00;;;;;;;;;;5012517;28;20029;-47
2022/08/08 13:14:46;;;;;;;5.72;1.88;;;;;;;;;;5012306;28;20141;-48
2022/08/08 13:17:12;;;;;;;9.88;2.75;;;;;;;;;;5012294;28;20654;-49
2022/08/08 13:19:38;;;;;;;12.07;2.20;;;;;;;;;;5012290;28;20029;-48
2022/08/08 13:22:05;;;;;;;10.75;2.30;;;;;;;;;;5011854;28;20397;-47
2022/08/08 13:24:35;;;;;;;8.02;2.10;;;;;;;;;;5012259;28;20069;-44
2022/08/08 13:27:06;;;;;;;8.88;2.40;;;;;;;;;;5011497;28;20495;-44
2022/08/08 13:29:34;;;;;;;3.22;1.95;;;;;;;;;;5011305;28;20069;-48
2022/08/08 13:32:03;;;;;;;4.32;1.75;;;;;;;;;;5011616;28;20543;-46
2022/08/08 13:34:29;;;;;;;3.03;1.95;;;;;;;;;;5011697;28;20049;-49
2022/08/08 13:36:55;;;;;;;12.18;2.40;;;;;;;;;;5011483;28;20473;-52
2022/08/08 13:39:22;;;;;;;12.95;3.45;;;;;;;;;;5011704;28;20029;-51
2022/08/08 13:41:49;;;;;;;9.20;2.33;;;;;;;;;;5011861;28;20034;-50
2022/08/08 13:44:15;;;;;;;7.15;2.20;;;;;;;;;;5011720;28;20380;-45
2022/08/08 13:47:01;;;;;;;8.98;2.25;;;;;;;;;;5011448;28;20030;-45
2022/08/08 13:49:29;;;;;;;2.88;2.08;;;;;;;;;;5011705;28;20430;-52
2022/08/08 13:52:00;;;;;;;3.97;2.35;;;;;;;;;;5011361;28;20119;-45
2022/08/08 13:54:28;;;;;;;6.15;2.40;;;;;;;;;;5011329;28;20038;-50
2022/08/08 13:57:11;;;;;;;8.15;2.58;;;;;;;;;;5011335;28;20626;-57
2022/08/08 13:59:43;;;;;;;5.93;2.45;;;;;;;;;;5011126;28;20253;-52
2022/08/08 14:02:13;;;;;;;4.57;2.25;;;;;;;;;;5011509;28;20042;-52
2022/08/08 14:04:53;;;;;;;9.32;2.63;;;;;;;;;;5010978;28;20572;-50
2022/08/08 14:07:21;;;;;;;5.20;2.70;;;;;;;;;;5011035;28;20056;-50
2022/08/08 14:09:47;;;;;;;9.20;3.10;;;;;;;;;;5010943;28;20026;-50
2022/08/08 14:12:14;;;;;;;4.32;2.53;;;;;;;;;;5011090;28;20034;-48
2022/08/08 14:14:42;;;;;;;3.72;2.50;;;;;;;;;;5010804;28;20061;-44
2022/08/08 14:17:09;;;;;;;4.82;2.65;;;;;;;;;;5011193;28;20101;-48
2022/08/08 14:19:40;;;;;;;2.63;2.22;;;;;;;;;;5010677;28;20029;-45
2022/08/08 14:22:36;;;;;;;8.38;2.88;;;;;;;;;;5010890;28;20037;-44
2022/08/08 14:25:05;;;;;;;6.68;2.65;;;;;;;;;;5009567;28;20041;-44
2022/08/08 14:27:34;;;;;;;5.00;2.70;;;;;;;;;;5010887;28;20472;-48
2022/08/08 14:30:08;;;;;;;4.82;2.67;;;;;;;;;;5011234;28;20038;-47
2022/08/08 14:32:35;;;;;;;4.72;2.53;;;;;;;;;;5011012;28;20041;-45
2022/08/08 14:35:04;;;;;;;2.85;2.40;;;;;;;;;;5011106;28;20044;-48
2022/08/08 14:37:29;;;;;;;5.43;2.55;;;;;;;;;;5011111;28;20048;-51
2022/08/08 14:39:58;;;;;;;6.95;2.55;;;;;;;;;;5014947;28;20030;-44
2022/08/08 14:42:35;;;;;;;8.10;2.60;;;;;;;;;;5014661;28;20037;-47
2022/08/08 14:45:05;;;;;;;3.58;2.42;;;;;;;;;;5014867;28;20109;-45
2022/08/08 14:47:42;;;;;;;5.88;2.60;;;;;;;;;;5014661;28;20439;-44
2022/08/08 14:50:10;;;;;;;8.07;2.55;;;;;;;;;;5014736;28;20033;-45
2022/08/08 14:52:44;;;;;;;6.95;2.75;;;;;;;;;;5014316;28;20489;-44
2022/08/08 14:55:10;;;;;;;6.40;2.90;;;;;;;;;;5014793;28;20053;-48
2022/08/08 14:57:36;;;;;;;9.90;2.70;;;;;;;;;;5014580;28;20048;-43
2022/08/08 15:00:03;;;;;;;7.45;2.78;;;;;;;;;;5014514;28;20473;-44
2022/08/08 15:02:29;;;;;;;10.70;3.00;;;;;;;;;;5014256;28;20038;-44
2022/08/08 15:04:54;;;;;;;7.03;2.28;;;;;;;;;;4996719;28;20040;-48
2022/08/08 15:07:21;;;;;;;16.08;3.08;;;;;;;;;;5014690;28;20092;-53
2022/08/08 15:09:47;;;;;;;9.30;2.80;;;;;;;;;;5013915;28;20038;-44
2022/08/08 15:12:13;;;;;;;8.02;2.63;;;;;;;;;;5014489;28;20041;-44
2022/08/08 15:14:38;;;;;;;5.43;2.85;;;;;;;;;;5014297;28;20037;-57
2022/08/08 15:17:04;;;;;;;7.57;2.55;;;;;;;;;;5014712;28;20396;-52
2022/08/08 15:19:29;;;;;;;9.00;3.33;;;;;;;;;;5014207;28;20434;-46
2022/08/08 15:21:55;;;;;;;2.83;2.28;;;;;;;;;;5014085;28;20376;-51
2022/08/08 15:24:21;;;;;;;3.80;2.65;;;;;;;;;;5013934;28;20037;-45
2022/08/08 15:26:46;;;;;;;7.70;2.85;;;;;;;;;;5013910;28;20034;-44
2022/08/08 15:29:12;;;;;;;3.10;2.40;;;;;;;;;;5014281;28;20045;-49